createdAt,value
2019-06-26T00:04:02.532Z,66.01
2019-06-26T00:09:07.372Z,66.10
2019-06-26T00:14:10.923Z,66.09
2019-06-26T00:19:14.319Z,66.06
2019-06-26T00:24:17.904Z,66.01
2019-06-26T00:29:21.436Z,66.28
2019-06-26T00:34:24.774Z,67.07
2019-06-26T00:39:28.310Z,66.85
2019-06-26T00:44:31.602Z,67.63
2019-06-26T00:49:34.788Z,67.83
2019-06-26T00:54:38.455Z,67.68
2019-06-26T00:59:42.198Z,67.74
2019-06-26T01:04:47.929Z,68.13
2019-06-26T01:09:51.452Z,68.29
2019-06-26T01:14:54.676Z,69.28
2019-06-26T01:19:57.862Z,69.31
2019-06-26T01:25:01.130Z,69.07
2019-06-26T01:30:05.824Z,69.12
2019-06-26T01:35:09.226Z,68.57
2019-06-26T01:40:12.873Z,68.44
2019-06-26T01:50:16.525Z,67.88
2019-06-26T01:55:19.820Z,68.27
2019-06-26T02:00:23.543Z,68.68
2019-06-26T02:05:26.441Z,68.04
2019-06-26T02:10:29.894Z,67.79
2019-06-26T02:15:33.601Z,68.22
2019-06-26T02:20:34.204Z,67.90
2019-06-26T02:25:37.547Z,66.97
2019-06-26T02:30:40.441Z,67.66
2019-06-26T02:35:44.067Z,68.21
2019-06-26T02:40:47.571Z,68.09
2019-06-26T02:45:50.188Z,68.04
2019-06-26T02:50:53.689Z,67.77
2019-06-26T02:55:56.655Z,68.14
2019-06-26T03:00:59.233Z,67.92
2019-06-26T03:06:02.556Z,68.45
2019-06-26T03:11:06.109Z,68.05
2019-06-26T03:16:09.356Z,68.76
2019-06-26T03:21:12.850Z,70.69
2019-06-26T03:26:15.399Z,69.73
2019-06-26T03:31:18.647Z,69.06
2019-06-26T03:36:21.966Z,69.38
2019-06-26T03:41:25.223Z,70.12
2019-06-26T03:46:28.445Z,70.12
2019-06-26T03:51:31.409Z,69.16
2019-06-26T03:56:34.739Z,69.81
2019-06-26T04:01:38.231Z,69.18
2019-06-26T04:06:41.852Z,68.79
2019-06-26T04:11:45.159Z,68.48
2019-06-26T04:16:48.694Z,68.43
2019-06-26T04:21:52.177Z,69.22
2019-06-26T04:26:55.697Z,68.72
2019-06-26T04:31:58.906Z,69.50
2019-06-26T04:37:01.940Z,69.11
2019-06-26T04:42:04.951Z,69.45
2019-06-26T04:47:07.900Z,69.44
2019-06-26T04:52:10.851Z,70.53
2019-06-26T04:57:14.414Z,70.56
2019-06-26T05:02:17.680Z,69.38
2019-06-26T05:07:21.275Z,68.08
2019-06-26T05:12:24.892Z,68.32
2019-06-26T05:17:28.439Z,68.71
2019-06-26T05:22:31.903Z,67.96
2019-06-26T05:27:34.677Z,68.44
2019-06-26T05:32:38.200Z,68.80
2019-06-26T05:37:42.482Z,68.78
2019-06-26T05:42:45.763Z,68.54
2019-06-26T05:47:49.002Z,68.86
2019-06-26T05:52:52.465Z,69.43
2019-06-26T05:57:54.960Z,68.25
2019-06-26T06:02:58.224Z,68.31
2019-06-26T06:08:01.437Z,68.90
2019-06-26T06:13:06.899Z,69.65
2019-06-26T06:18:11.902Z,68.50
2019-06-26T06:23:15.155Z,69.13
2019-06-26T06:28:17.998Z,68.60
2019-06-26T06:33:21.435Z,68.80
2019-06-26T06:38:24.980Z,68.75
2019-06-26T06:43:28.170Z,68.90
2019-06-26T06:48:31.415Z,69.59
2019-06-26T06:53:33.908Z,69.20
2019-06-26T06:58:36.401Z,69.44
2019-06-26T07:03:39.906Z,68.96
2019-06-26T07:08:43.132Z,68.05
2019-06-26T07:13:45.678Z,68.79
2019-06-26T07:18:49.108Z,69.32
2019-06-26T07:23:52.657Z,69.11
2019-06-26T07:28:53.540Z,69.43
2019-06-26T07:33:57.090Z,68.64
2019-06-26T07:39:02.019Z,68.00
2019-06-26T07:44:05.238Z,65.78
2019-06-26T07:49:08.062Z,66.88
2019-06-26T07:54:10.518Z,66.60
2019-06-26T07:59:13.698Z,68.14
2019-06-26T08:04:16.820Z,66.02
2019-06-26T08:09:19.302Z,65.62
2019-06-26T08:14:22.319Z,65.23
2019-06-26T08:19:25.183Z,66.08
2019-06-26T08:24:28.805Z,67.65
2019-06-26T08:29:32.151Z,67.21
2019-06-26T08:34:35.484Z,67.19
2019-06-26T08:39:39.049Z,67.46
2019-06-26T08:44:42.419Z,69.58
2019-06-26T08:49:45.093Z,67.97
2019-06-26T08:54:48.728Z,68.57
2019-06-26T08:59:52.248Z,69.98
2019-06-26T09:04:55.909Z,69.91
2019-06-26T09:09:59.125Z,69.30
2019-06-26T09:15:03.759Z,72.67
2019-06-26T09:20:07.647Z,70.75
2019-06-26T09:25:21.447Z,72.95
2019-06-26T09:30:15.639Z,71.08
2019-06-26T09:35:18.861Z,71.58
2019-06-26T09:40:22.102Z,73.28
2019-06-26T09:45:25.701Z,70.15
2019-06-26T09:50:29.551Z,69.97
2019-06-26T09:55:32.879Z,70.25
2019-06-26T10:00:35.911Z,66.69
2019-06-26T10:05:39.264Z,67.24
2019-06-26T10:10:42.805Z,64.42
2019-06-26T10:15:46.134Z,61.86
2019-06-26T10:20:49.691Z,59.21
2019-06-26T10:25:53.029Z,61.41
2019-06-26T10:30:56.283Z,63.26
2019-06-26T10:35:59.890Z,58.98
2019-06-26T10:41:03.171Z,57.67
2019-06-26T10:46:06.120Z,57.66
2019-06-26T10:51:09.345Z,58.69
2019-06-26T10:56:12.542Z,60.50
2019-06-26T11:01:15.768Z,59.68
2019-06-26T11:06:18.989Z,55.30
2019-06-26T11:11:21.945Z,56.32
2019-06-26T11:16:25.264Z,54.88
2019-06-26T11:21:28.238Z,54.38
2019-06-26T11:26:31.179Z,54.66
2019-06-26T11:31:34.438Z,54.21
2019-06-26T11:36:37.730Z,56.69
2019-06-26T11:41:41.102Z,57.05
2019-06-26T11:46:44.212Z,55.76
2019-06-26T11:51:46.799Z,54.64
2019-06-26T11:56:49.698Z,54.94
2019-06-26T12:01:52.610Z,53.63
2019-06-26T12:06:55.897Z,53.20
2019-06-26T12:11:59.461Z,54.80
2019-06-26T12:17:02.983Z,52.86
2019-06-26T12:22:06.284Z,53.29
2019-06-26T12:27:09.519Z,52.46
2019-06-26T12:32:12.908Z,51.41
2019-06-26T12:37:16.460Z,52.10
2019-06-26T12:42:19.316Z,50.36
2019-06-26T12:47:22.633Z,49.44
2019-06-26T12:52:26.148Z,50.48
2019-06-26T12:57:29.397Z,48.59
2019-06-26T13:02:33.091Z,48.59
2019-06-26T13:07:36.970Z,45.96
2019-06-26T13:12:40.557Z,47.84
2019-06-26T13:17:44.186Z,45.52
2019-06-26T13:22:47.134Z,46.19
2019-06-26T13:27:50.069Z,47.26
2019-06-26T13:32:53.295Z,45.29
2019-06-26T13:37:55.926Z,48.00
2019-06-26T13:42:58.423Z,47.82
2019-06-26T13:48:01.730Z,46.93
2019-06-26T13:53:04.963Z,50.82
2019-06-26T13:58:08.306Z,49.42
2019-06-26T14:03:11.204Z,47.92
2019-06-26T14:08:14.423Z,48.38
2019-06-26T14:13:17.961Z,47.75
2019-06-26T14:18:21.563Z,47.55
2019-06-26T14:23:24.759Z,48.33
2019-06-26T14:28:27.957Z,48.82
2019-06-26T14:33:31.554Z,49.01
2019-06-26T14:38:34.481Z,49.32
2019-06-26T14:43:37.702Z,48.74
2019-06-26T14:48:41.213Z,49.39
2019-06-26T14:53:44.837Z,49.50
2019-06-26T14:58:48.037Z,48.47
2019-06-26T15:03:51.363Z,46.32
2019-06-26T15:08:54.309Z,46.21
2019-06-26T15:13:57.277Z,48.05
2019-06-26T15:19:00.926Z,47.62
2019-06-26T15:24:03.969Z,47.93
2019-06-26T15:29:06.678Z,50.28
2019-06-26T15:34:09.674Z,50.06
2019-06-26T15:39:12.595Z,49.15
2019-06-26T15:44:15.805Z,47.61
2019-06-26T15:49:18.419Z,48.35
2019-06-26T15:54:21.960Z,48.56
2019-06-26T15:59:25.187Z,49.38
2019-06-26T16:04:28.768Z,49.78
2019-06-26T16:09:32.074Z,50.40
2019-06-26T16:14:35.391Z,51.54
2019-06-26T16:19:38.643Z,51.67
2019-06-26T16:24:42.010Z,53.05
2019-06-26T16:29:48.496Z,52.54
2019-06-26T16:34:49.875Z,52.06
2019-06-26T16:39:52.738Z,52.19
2019-06-26T16:44:58.888Z,52.03
2019-06-26T16:50:02.484Z,53.34
2019-06-26T16:55:06.128Z,52.88
2019-06-26T17:00:10.487Z,51.57
2019-06-26T17:05:14.049Z,53.31
2019-06-26T17:10:17.977Z,52.52
2019-06-26T17:15:21.733Z,52.96
2019-06-26T17:20:25.350Z,52.82
2019-06-26T17:25:28.572Z,54.05
2019-06-26T17:30:32.140Z,54.51
2019-06-26T17:35:34.769Z,54.58
2019-06-26T17:40:37.749Z,54.58
2019-06-26T17:45:41.276Z,54.39
2019-06-26T17:50:44.914Z,56.15
2019-06-26T17:55:48.665Z,56.15
2019-06-26T18:00:51.966Z,55.41
2019-06-26T18:05:54.572Z,56.30
2019-06-26T18:10:58.228Z,56.26
2019-06-26T18:16:01.261Z,57.74
2019-06-26T18:21:04.603Z,59.24
2019-06-26T18:26:13.536Z,59.19
2019-06-26T18:31:13.131Z,59.10
2019-06-26T18:36:16.783Z,58.43
2019-06-26T18:41:20.402Z,59.84
2019-06-26T18:46:24.974Z,60.82
2019-06-26T18:51:28.662Z,60.87
2019-06-26T18:56:31.321Z,60.97
2019-06-26T19:01:34.743Z,61.52
2019-06-26T19:06:39.900Z,60.53
2019-06-26T19:11:45.758Z,61.27
2019-06-26T19:16:49.376Z,63.39
2019-06-26T19:21:52.386Z,61.68
2019-06-26T19:26:55.993Z,61.54
2019-06-26T19:31:59.393Z,61.68
2019-06-26T19:37:03.079Z,61.65
2019-06-26T19:42:06.752Z,61.40
2019-06-26T19:47:10.292Z,62.03
2019-06-26T19:52:13.962Z,61.98
2019-06-26T19:57:17.650Z,62.54
2019-06-26T20:02:20.927Z,61.67
2019-06-26T20:07:23.932Z,60.82
2019-06-26T20:12:27.513Z,61.19
2019-06-26T20:17:31.119Z,61.84
2019-06-26T20:22:34.173Z,61.94
2019-06-26T20:27:37.507Z,62.00
2019-06-26T20:32:40.813Z,62.85
2019-06-26T20:37:44.038Z,64.41
2019-06-26T20:42:47.262Z,64.71
2019-06-26T20:47:50.950Z,63.14
2019-06-26T20:52:53.976Z,63.57
2019-06-26T20:57:57.594Z,63.33
2019-06-26T21:03:01.947Z,65.05
2019-06-26T21:08:05.245Z,64.11
2019-06-26T21:13:08.751Z,63.75
2019-06-26T21:18:13.818Z,63.72
2019-06-26T21:23:18.942Z,64.60
2019-06-26T21:28:22.463Z,65.52
2019-06-26T21:33:24.964Z,64.32
2019-06-26T21:38:28.517Z,64.96
2019-06-26T21:43:31.398Z,65.65
2019-06-26T21:48:34.732Z,66.47
2019-06-26T21:53:38.308Z,65.89
2019-06-26T21:58:41.225Z,65.50
2019-06-26T22:03:44.397Z,65.26
2019-06-26T22:08:47.336Z,65.71
2019-06-26T22:13:50.883Z,65.38
2019-06-26T22:18:54.269Z,66.49
2019-06-26T22:23:57.681Z,66.64
2019-06-26T22:29:01.292Z,66.37
2019-06-26T22:34:04.559Z,66.87
2019-06-26T22:39:07.193Z,67.25
2019-06-26T22:44:10.368Z,67.23
2019-06-26T22:49:13.854Z,66.46
2019-06-26T22:54:19.753Z,66.52
2019-06-26T22:59:22.612Z,66.19
2019-06-26T23:04:26.403Z,65.60
2019-06-26T23:09:30.196Z,66.70
2019-06-26T23:14:33.777Z,65.89
2019-06-26T23:19:37.032Z,65.60
2019-06-26T23:24:40.295Z,65.86
2019-06-26T23:29:43.514Z,65.48
2019-06-26T23:34:46.060Z,66.69
2019-06-26T23:39:49.832Z,66.35
2019-06-26T23:44:52.791Z,65.64
2019-06-26T23:49:55.731Z,65.23
2019-06-26T23:54:59.274Z,65.44
